createdAt,value
2018-04-18T00:00:54.537Z,16.95
2018-04-18T00:01:54.542Z,16.94
2018-04-18T00:02:54.560Z,16.94
2018-04-18T00:03:54.673Z,16.86
2018-04-18T00:04:54.588Z,16.94
2018-04-18T00:05:54.720Z,16.84
2018-04-18T00:06:54.735Z,16.92
2018-04-18T00:07:54.620Z,16.94
2018-04-18T00:08:54.741Z,16.84
2018-04-18T00:09:54.655Z,16.76
2018-04-18T00:10:54.672Z,16.91
2018-04-18T00:11:54.806Z,16.91
2018-04-18T00:12:54.828Z,16.91
2018-04-18T00:13:54.811Z,16.86
2018-04-18T00:14:54.845Z,16.83
2018-04-18T00:15:54.859Z,16.83
2018-04-18T00:16:54.870Z,16.84
2018-04-18T00:17:54.886Z,16.82
2018-04-18T00:18:54.998Z,16.83
2018-04-18T00:19:54.790Z,16.86
2018-04-18T00:20:54.925Z,16.94
2018-04-18T00:21:54.821Z,16.79
2018-04-18T00:22:54.832Z,16.82
2018-04-18T00:23:54.967Z,16.79
2018-04-18T00:24:55.079Z,16.80
2018-04-18T00:25:54.996Z,16.80
2018-04-18T00:26:55.050Z,16.83
2018-04-18T00:27:54.895Z,16.80
2018-04-18T00:28:54.918Z,16.72
2018-04-18T00:29:55.021Z,16.74
2018-04-18T00:30:55.065Z,16.73
2018-04-18T00:31:54.954Z,16.66
2018-04-18T00:32:55.090Z,16.64
2018-04-18T00:33:54.972Z,16.69
2018-04-18T00:34:55.110Z,16.65
2018-04-18T00:35:55.129Z,16.69
2018-04-18T00:36:55.141Z,16.68
2018-04-18T00:37:55.036Z,16.58
2018-04-18T00:38:55.053Z,16.62
2018-04-18T00:39:55.074Z,16.50
2018-04-18T00:40:55.301Z,16.51
2018-04-18T00:41:55.210Z,16.40
2018-04-18T00:42:55.226Z,16.46
2018-04-18T00:43:55.237Z,16.41
2018-04-18T00:44:55.129Z,16.43
2018-04-18T00:45:55.363Z,16.32
2018-04-18T00:46:55.149Z,16.40
2018-04-18T00:47:55.179Z,16.36
2018-04-18T00:48:55.304Z,16.31
2018-04-18T00:49:55.317Z,16.31
2018-04-18T00:50:55.317Z,16.26
2018-04-18T00:51:55.223Z,16.36
2018-04-18T00:52:55.239Z,16.34
2018-04-18T00:53:55.374Z,16.36
2018-04-18T00:54:55.257Z,16.39
2018-04-18T00:55:55.288Z,16.44
2018-04-18T00:56:55.405Z,16.46
2018-04-18T00:57:55.429Z,16.40
2018-04-18T00:59:55.457Z,16.39
2018-04-18T01:00:55.349Z,16.39
2018-04-18T01:01:55.579Z,16.40
2018-04-18T01:02:55.496Z,16.34
2018-04-18T01:03:55.392Z,16.41
2018-04-18T01:04:55.407Z,16.40
2018-04-18T01:05:55.415Z,16.55
2018-04-18T01:06:55.647Z,16.51
2018-04-18T01:07:55.559Z,16.40
2018-04-18T01:08:55.453Z,16.46
2018-04-18T01:09:55.458Z,16.41
2018-04-18T01:10:55.605Z,16.41
2018-04-18T01:11:55.593Z,16.41
2018-04-18T01:12:55.626Z,16.44
2018-04-18T01:13:55.643Z,16.49
2018-04-18T01:14:55.552Z,16.39
2018-04-18T01:15:55.742Z,16.31
2018-04-18T01:16:55.669Z,16.32
2018-04-18T01:17:55.697Z,16.25
2018-04-18T01:18:55.590Z,16.29
2018-04-18T01:19:55.612Z,16.31
2018-04-18T01:20:55.735Z,16.25
2018-04-18T01:21:55.737Z,16.22
2018-04-18T01:22:55.759Z,16.25
2018-04-18T01:23:55.654Z,16.28
2018-04-18T01:24:55.786Z,16.29
2018-04-18T01:25:55.803Z,16.24
2018-04-18T01:26:55.963Z,16.24
2018-04-18T01:27:55.715Z,16.24
2018-04-18T01:28:55.717Z,16.22
2018-04-18T01:29:55.852Z,16.24
2018-04-18T01:30:55.758Z,16.24
2018-04-18T01:31:56.252Z,16.18
2018-04-18T01:32:55.763Z,16.16
2018-04-18T01:33:55.789Z,16.18
2018-04-18T01:34:55.923Z,16.21
2018-04-18T01:35:55.806Z,16.25
2018-04-18T01:36:55.829Z,16.28
2018-04-18T01:37:55.846Z,16.31
2018-04-18T01:38:55.974Z,16.22
2018-04-18T01:39:55.983Z,16.31
2018-04-18T01:40:55.998Z,16.34
2018-04-18T01:41:55.883Z,16.28
2018-04-18T01:42:55.906Z,16.25
2018-04-18T01:43:56.012Z,16.29
2018-04-18T01:44:56.052Z,16.25
2018-04-18T01:45:56.067Z,16.22
2018-04-18T01:46:55.966Z,16.24
2018-04-18T01:47:55.979Z,16.21
2018-04-18T01:48:56.206Z,16.09
2018-04-18T01:49:56.010Z,16.13
2018-04-18T01:50:56.004Z,16.08
2018-04-18T01:51:56.026Z,16.12
2018-04-18T01:52:56.030Z,16.00
2018-04-18T01:53:56.169Z,15.96
2018-04-18T01:54:56.334Z,16.00
2018-04-18T01:55:56.196Z,15.96
2018-04-18T01:56:56.094Z,15.96
2018-04-18T01:57:56.225Z,15.90
2018-04-18T01:58:56.235Z,15.84
2018-04-18T01:59:56.229Z,15.78
2018-04-18T02:00:56.266Z,15.90
2018-04-18T02:01:56.165Z,15.83
2018-04-18T02:02:56.288Z,15.84
2018-04-18T02:03:56.300Z,15.88
2018-04-18T02:04:56.190Z,15.90
2018-04-18T02:05:56.297Z,15.81
2018-04-18T02:06:56.216Z,15.83
2018-04-18T02:07:56.351Z,15.81
2018-04-18T02:08:56.242Z,15.80
2018-04-18T02:09:56.376Z,15.76
2018-04-18T02:10:56.494Z,15.75
2018-04-18T02:11:56.281Z,15.67
2018-04-18T02:12:56.417Z,15.69
2018-04-18T02:13:56.430Z,15.69
2018-04-18T02:14:56.447Z,15.78
2018-04-18T02:15:56.440Z,15.73
2018-04-18T02:16:56.468Z,15.72
2018-04-18T02:17:56.367Z,15.80
2018-04-18T02:18:56.494Z,15.75
2018-04-18T02:19:56.385Z,15.63
2018-04-18T02:20:56.498Z,15.69
2018-04-18T02:21:56.531Z,15.65
2018-04-18T02:22:56.549Z,15.63
2018-04-18T02:23:56.556Z,15.51
2018-04-18T02:24:56.574Z,15.51
2018-04-18T02:25:56.685Z,15.52
2018-04-18T02:26:56.475Z,15.57
2018-04-18T02:27:56.610Z,15.45
2018-04-18T02:28:56.515Z,15.55
2018-04-18T02:29:56.518Z,15.55
2018-04-18T02:30:56.749Z,15.57
2018-04-18T02:31:56.549Z,15.45
2018-04-18T02:32:56.554Z,15.41
2018-04-18T02:33:56.571Z,15.43
2018-04-18T02:34:56.577Z,15.44
2018-04-18T02:35:56.691Z,15.48
2018-04-18T02:36:56.595Z,15.47
2018-04-18T02:37:56.742Z,15.44
2018-04-18T02:38:56.751Z,15.44
2018-04-18T02:39:56.764Z,15.39
2018-04-18T02:40:56.759Z,15.43
2018-04-18T02:41:56.680Z,15.30
2018-04-18T02:42:56.799Z,15.39
2018-04-18T02:43:56.814Z,15.39
2018-04-18T02:44:56.825Z,15.27
2018-04-18T02:45:56.939Z,15.33
2018-04-18T02:46:56.725Z,15.29
2018-04-18T02:47:56.868Z,15.25
2018-04-18T02:48:56.875Z,15.19
2018-04-18T02:49:56.769Z,15.26
2018-04-18T02:50:56.937Z,15.14
2018-04-18T02:51:56.918Z,15.18
2018-04-18T02:52:56.816Z,15.04
2018-04-18T02:53:56.828Z,15.05
2018-04-18T02:54:56.960Z,15.07
2018-04-18T02:55:56.952Z,15.10
2018-04-18T02:56:56.851Z,15.02
2018-04-18T02:57:56.876Z,15.18
2018-04-18T02:58:56.878Z,15.15
2018-04-18T02:59:56.900Z,15.17
2018-04-18T03:00:56.907Z,15.10
2018-04-18T03:01:57.193Z,15.18
2018-04-18T03:02:56.938Z,15.11
2018-04-18T03:03:56.944Z,15.12
2018-04-18T03:04:57.082Z,15.15
2018-04-18T03:05:56.968Z,15.02
2018-04-18T03:06:57.209Z,15.02
2018-04-18T03:07:57.120Z,15.02
2018-04-18T03:08:57.015Z,15.02
2018-04-18T03:09:57.032Z,15.19
2018-04-18T03:10:57.158Z,15.17
2018-04-18T03:11:57.146Z,15.30
2018-04-18T03:12:57.184Z,15.32
2018-04-18T03:13:57.195Z,15.26
2018-04-18T03:14:57.097Z,15.33
2018-04-18T03:15:57.096Z,15.33
2018-04-18T03:16:57.386Z,15.17
2018-04-18T03:17:57.117Z,15.15
2018-04-18T03:18:57.147Z,15.05
2018-04-18T03:19:57.152Z,15.02
2018-04-18T03:20:57.288Z,15.04
2018-04-18T03:21:57.337Z,15.04
2018-04-18T03:22:57.187Z,15.04
2018-04-18T03:23:57.201Z,15.02
2018-04-18T03:24:57.212Z,15.18
2018-04-18T03:25:57.355Z,15.18
2018-04-18T03:26:57.460Z,15.17
2018-04-18T03:27:57.252Z,15.17
2018-04-18T03:28:57.385Z,15.30
2018-04-18T03:29:57.399Z,15.27
2018-04-18T03:30:57.287Z,15.25
2018-04-18T03:31:57.528Z,15.22
2018-04-18T03:32:57.437Z,15.19
2018-04-18T03:33:57.321Z,15.19
2018-04-18T03:34:57.351Z,15.18
2018-04-18T03:35:57.367Z,15.07
2018-04-18T03:36:57.638Z,15.08
2018-04-18T03:37:57.383Z,15.11
2018-04-18T03:38:57.517Z,15.12
2018-04-18T03:39:57.405Z,15.07
2018-04-18T03:40:57.539Z,15.12
2018-04-18T03:41:57.531Z,15.11
2018-04-18T03:42:57.567Z,15.02
2018-04-18T03:43:57.467Z,15.05
2018-04-18T03:44:57.591Z,14.97
2018-04-18T03:45:57.492Z,15.10
2018-04-18T03:46:57.714Z,15.08
2018-04-18T03:47:57.506Z,14.90
2018-04-18T03:48:57.519Z,14.97
2018-04-18T03:49:57.652Z,14.97
2018-04-18T03:50:57.674Z,14.93
2018-04-18T03:51:57.656Z,15.07
2018-04-18T03:52:57.569Z,14.90
2018-04-18T03:53:57.580Z,15.00
2018-04-18T03:54:57.587Z,15.12
2018-04-18T03:55:57.729Z,14.97
2018-04-18T03:56:57.709Z,14.97
2018-04-18T03:57:57.640Z,14.89
2018-04-18T03:58:57.681Z,14.87
2018-04-18T03:59:57.657Z,14.89
2018-04-18T04:00:57.679Z,14.87
2018-04-18T04:01:57.792Z,14.77
2018-04-18T04:02:57.819Z,14.81
2018-04-18T04:03:57.707Z,14.74
2018-04-18T04:04:57.841Z,14.73
2018-04-18T04:05:57.724Z,14.74
2018-04-18T04:06:57.966Z,14.67
2018-04-18T04:07:57.879Z,14.67
2018-04-18T04:08:57.890Z,14.63
2018-04-18T04:09:57.907Z,14.59
2018-04-18T04:10:57.784Z,14.55
2018-04-18T04:11:57.901Z,14.59
2018-04-18T04:12:57.830Z,14.48
2018-04-18T04:13:57.844Z,14.48
2018-04-18T04:14:57.847Z,14.51
2018-04-18T04:15:57.848Z,14.43
2018-04-18T04:16:57.973Z,14.49
2018-04-18T04:17:57.885Z,14.41
2018-04-18T04:18:58.020Z,14.43
2018-04-18T04:19:57.916Z,14.33
2018-04-18T04:20:57.924Z,14.26
2018-04-18T04:21:58.156Z,14.23
2018-04-18T04:22:57.937Z,14.25
2018-04-18T04:23:57.953Z,14.34
2018-04-18T04:24:58.095Z,14.25
2018-04-18T04:25:58.104Z,14.23
2018-04-18T04:26:58.215Z,14.23
2018-04-18T04:27:58.000Z,14.25
2018-04-18T04:28:58.139Z,14.19
2018-04-18T04:29:58.152Z,14.05
2018-04-18T04:30:58.043Z,14.11
2018-04-18T04:31:58.278Z,14.16
2018-04-18T04:32:58.189Z,14.13
2018-04-18T04:33:58.072Z,14.07
2018-04-18T04:34:58.087Z,14.15
2018-04-18T04:35:58.111Z,14.18
2018-04-18T04:36:58.166Z,14.11
2018-04-18T04:37:58.226Z,14.11
2018-04-18T04:38:58.142Z,14.11
2018-04-18T04:39:58.167Z,14.07
2018-04-18T04:40:58.172Z,14.07
2018-04-18T04:41:58.305Z,14.01
2018-04-18T04:42:58.313Z,14.05
2018-04-18T04:43:58.427Z,14.03
2018-04-18T04:44:58.233Z,14.01
2018-04-18T04:45:58.349Z,14.23
2018-04-18T04:46:58.366Z,14.25
2018-04-18T04:47:58.259Z,14.22
2018-04-18T04:48:58.360Z,14.23
2018-04-18T04:49:58.273Z,14.22
2018-04-18T04:50:58.411Z,14.23
2018-04-18T04:51:58.425Z,14.30
2018-04-18T04:52:58.435Z,14.31
2018-04-18T04:53:58.419Z,14.31
2018-04-18T04:54:58.460Z,14.23
2018-04-18T04:55:58.473Z,14.22
2018-04-18T04:56:58.484Z,14.18
2018-04-18T04:57:58.499Z,14.07
2018-04-18T04:58:58.490Z,14.11
2018-04-18T04:59:58.401Z,14.07
2018-04-18T05:00:58.417Z,14.05
2018-04-18T05:01:58.423Z,14.13
2018-04-18T05:02:58.562Z,14.01
2018-04-18T05:03:58.551Z,13.98
2018-04-18T05:04:58.584Z,14.01
2018-04-18T05:05:58.468Z,14.01
2018-04-18T05:06:58.606Z,14.05
2018-04-18T05:07:58.624Z,13.97
2018-04-18T05:08:58.601Z,13.97
2018-04-18T05:09:58.643Z,13.97
2018-04-18T05:10:58.655Z,13.98
2018-04-18T05:11:58.667Z,13.91
2018-04-18T05:12:58.571Z,13.94
2018-04-18T05:13:58.671Z,13.80
2018-04-18T05:14:58.707Z,13.93
2018-04-18T05:15:58.605Z,13.86
2018-04-18T05:16:58.619Z,13.87
2018-04-18T05:17:58.742Z,13.83
2018-04-18T05:18:58.852Z,13.73
2018-04-18T05:19:58.645Z,13.73
2018-04-18T05:20:58.781Z,13.80
2018-04-18T05:21:58.673Z,13.85
2018-04-18T05:22:58.681Z,13.80
2018-04-18T05:23:58.803Z,13.86
2018-04-18T05:24:58.828Z,13.86
2018-04-18T05:25:58.842Z,13.91
2018-04-18T05:26:58.736Z,13.83
2018-04-18T05:27:58.733Z,13.75
2018-04-18T05:28:58.978Z,13.85
2018-04-18T05:29:58.772Z,13.78
2018-04-18T05:30:58.807Z,13.75
2018-04-18T05:31:58.914Z,13.75
2018-04-18T05:32:58.920Z,13.82
2018-04-18T05:33:58.914Z,13.75
2018-04-18T05:34:58.827Z,13.68
2018-04-18T05:35:58.963Z,13.80
2018-04-18T05:36:58.970Z,13.78
2018-04-18T05:37:58.983Z,13.82
2018-04-18T05:38:58.973Z,13.71
2018-04-18T05:39:58.895Z,13.79
2018-04-18T05:40:58.901Z,13.76
2018-04-18T05:41:58.906Z,13.79
2018-04-18T05:42:58.914Z,13.87
2018-04-18T05:43:59.159Z,13.83
2018-04-18T05:44:58.954Z,13.93
2018-04-18T05:45:58.962Z,13.85
2018-04-18T05:46:58.971Z,13.80
2018-04-18T05:47:59.103Z,13.83
2018-04-18T05:48:59.095Z,13.83
2018-04-18T05:49:59.007Z,13.79
2018-04-18T05:50:59.067Z,13.87
2018-04-18T05:51:59.031Z,13.82
2018-04-18T05:52:59.165Z,13.83
2018-04-18T05:53:59.162Z,13.83
2018-04-18T05:54:59.187Z,13.85
2018-04-18T05:55:59.078Z,13.86
2018-04-18T05:56:59.214Z,13.85
2018-04-18T05:57:59.223Z,13.83
2018-04-18T05:58:59.107Z,13.73
2018-04-18T05:59:59.347Z,13.80
2018-04-18T06:00:59.258Z,13.78
2018-04-18T06:01:59.275Z,13.80
2018-04-18T06:02:59.285Z,13.87
2018-04-18T06:03:59.179Z,13.85
2018-04-18T06:04:59.277Z,13.83
2018-04-18T06:05:59.323Z,13.89
2018-04-18T06:06:59.334Z,13.78
2018-04-18T06:07:59.222Z,13.68
2018-04-18T06:08:59.356Z,13.67
2018-04-18T06:09:59.466Z,13.64
2018-04-18T06:10:59.381Z,13.62
2018-04-18T06:11:59.279Z,13.71
2018-04-18T06:12:59.407Z,13.87
2018-04-18T06:13:59.416Z,13.78
2018-04-18T06:14:59.531Z,13.78
2018-04-18T06:15:59.440Z,13.71
2018-04-18T06:16:59.349Z,13.82
2018-04-18T06:17:59.347Z,13.76
2018-04-18T06:18:59.362Z,13.79
2018-04-18T06:19:59.521Z,13.80
2018-04-18T06:20:59.371Z,13.91
2018-04-18T06:21:59.513Z,13.76
2018-04-18T06:22:59.396Z,13.80
2018-04-18T06:23:59.413Z,13.73
2018-04-18T06:24:59.583Z,13.75
2018-04-18T06:25:59.443Z,13.75
2018-04-18T06:26:59.456Z,13.76
2018-04-18T06:27:59.465Z,13.76
2018-04-18T06:28:59.470Z,13.68
2018-04-18T06:29:59.758Z,13.76
2018-04-18T06:30:59.505Z,13.76
2018-04-18T06:31:59.633Z,13.79
2018-04-18T06:32:59.522Z,13.86
2018-04-18T06:33:59.527Z,13.83
2018-04-18T06:34:59.774Z,13.86
2018-04-18T06:35:59.678Z,13.85
2018-04-18T06:36:59.692Z,13.73
2018-04-18T06:37:59.592Z,13.78
2018-04-18T06:38:59.591Z,13.76
2018-04-18T06:39:59.893Z,13.75
2018-04-18T06:40:59.620Z,13.67
2018-04-18T06:41:59.646Z,13.67
2018-04-18T06:43:59.642Z,13.67
2018-04-18T06:44:59.763Z,13.58
2018-04-18T06:45:59.673Z,13.55
2018-04-18T06:46:59.801Z,13.58
2018-04-18T06:47:59.819Z,13.58
2018-04-18T06:48:59.826Z,13.42
2018-04-18T06:49:59.943Z,13.40
2018-04-18T06:50:59.850Z,13.43
2018-04-18T06:51:59.865Z,13.50
2018-04-18T06:52:59.882Z,13.52
2018-04-18T06:53:59.892Z,13.52
2018-04-18T06:54:59.997Z,13.55
2018-04-18T06:55:59.910Z,13.57
2018-04-18T06:56:59.795Z,13.58
2018-04-18T06:57:59.932Z,13.55
2018-04-18T06:58:59.950Z,13.54
2018-04-18T07:00:00.064Z,13.58
2018-04-18T07:00:59.974Z,13.52
2018-04-18T07:01:59.987Z,13.57
2018-04-18T07:03:00.000Z,13.54
2018-04-18T07:04:00.008Z,13.50
2018-04-18T07:05:00.023Z,13.57
2018-04-18T07:06:00.130Z,13.45
2018-04-18T07:07:00.040Z,13.45
2018-04-18T07:08:00.052Z,13.40
2018-04-18T07:09:00.062Z,13.49
2018-04-18T07:09:59.951Z,13.47
2018-04-18T07:11:00.193Z,13.52
2018-04-18T07:12:00.103Z,13.58
2018-04-18T07:12:59.985Z,13.50
2018-04-18T07:14:00.126Z,13.52
2018-04-18T07:15:00.021Z,13.57
2018-04-18T07:16:00.250Z,13.55
2018-04-18T07:17:00.164Z,13.54
2018-04-18T07:18:00.173Z,13.52
2018-04-18T07:19:00.066Z,13.55
2018-04-18T07:20:00.203Z,13.54
2018-04-18T07:21:00.209Z,13.55
2018-04-18T07:22:00.192Z,13.57
2018-04-18T07:23:00.240Z,13.54
2018-04-18T07:24:00.250Z,13.43
2018-04-18T07:25:00.266Z,13.45
2018-04-18T07:26:00.262Z,13.47
2018-04-18T07:27:00.381Z,13.40
2018-04-18T07:28:00.167Z,13.42
2018-04-18T07:29:00.182Z,13.54
2018-04-18T07:30:00.311Z,13.57
2018-04-18T07:31:00.322Z,13.54
2018-04-18T07:32:00.494Z,13.54
2018-04-18T07:33:00.221Z,13.55
2018-04-18T07:34:00.356Z,13.61
2018-04-18T07:35:00.368Z,13.50
2018-04-18T07:36:00.259Z,13.39
2018-04-18T07:37:00.392Z,13.52
2018-04-18T07:38:00.554Z,13.40
2018-04-18T07:39:00.419Z,13.57
2018-04-18T07:40:00.443Z,13.47
2018-04-18T07:41:00.317Z,13.39
2018-04-18T07:42:00.451Z,13.43
2018-04-18T07:43:00.442Z,13.39
2018-04-18T07:44:00.486Z,13.28
2018-04-18T07:45:00.487Z,13.45
2018-04-18T07:46:00.504Z,13.42
2018-04-18T07:47:00.510Z,13.37
2018-04-18T07:48:00.522Z,13.37
2018-04-18T07:49:00.639Z,13.40
2018-04-18T07:50:00.421Z,13.37
2018-04-18T07:51:00.558Z,13.37
2018-04-18T07:52:00.575Z,13.40
2018-04-18T07:53:00.596Z,13.42
2018-04-18T07:54:00.567Z,13.40
2018-04-18T07:55:00.505Z,13.46
2018-04-18T07:56:00.619Z,13.55
2018-04-18T07:57:00.644Z,13.54
2018-04-18T07:58:00.647Z,13.55
2018-04-18T07:59:00.805Z,13.61
2018-04-18T08:00:00.667Z,13.57
2018-04-18T08:01:00.556Z,13.64
2018-04-18T08:02:00.572Z,13.79
2018-04-18T08:03:00.703Z,13.78
2018-04-18T08:04:00.860Z,13.76
2018-04-18T08:05:00.729Z,13.76
2018-04-18T08:06:00.736Z,13.80
2018-04-18T08:07:00.754Z,13.80
2018-04-18T08:08:00.757Z,13.80
2018-04-18T08:09:00.871Z,13.86
2018-04-18T08:10:00.654Z,13.85
2018-04-18T08:11:00.676Z,13.95
2018-04-18T08:12:00.679Z,13.85
2018-04-18T08:13:00.816Z,13.91
2018-04-18T08:14:00.813Z,13.91
2018-04-18T08:15:00.726Z,13.93
2018-04-18T08:16:00.851Z,14.03
2018-04-18T08:17:00.749Z,14.13
2018-04-18T08:18:00.881Z,14.16
2018-04-18T08:19:01.035Z,14.12
2018-04-18T08:20:00.897Z,14.01
2018-04-18T08:21:00.911Z,14.03
2018-04-18T08:22:00.795Z,14.00
2018-04-18T08:23:00.942Z,13.97
2018-04-18T08:24:00.819Z,13.98
2018-04-18T08:25:00.934Z,14.03
2018-04-18T08:26:00.967Z,14.07
2018-04-18T08:27:00.855Z,14.07
2018-04-18T08:28:00.875Z,14.13
2018-04-18T08:29:00.881Z,14.05
2018-04-18T08:30:00.990Z,14.08
2018-04-18T08:31:01.027Z,14.11
2018-04-18T08:32:01.043Z,14.07
2018-04-18T08:33:01.059Z,14.16
2018-04-18T08:34:01.076Z,14.15
2018-04-18T08:35:01.076Z,14.08
2018-04-18T08:36:01.188Z,14.07
2018-04-18T08:37:00.974Z,14.11
2018-04-18T08:38:01.109Z,14.11
2018-04-18T08:39:01.130Z,14.05
2018-04-18T08:40:01.134Z,14.16
2018-04-18T08:41:01.293Z,14.12
2018-04-18T08:42:01.037Z,14.07
2018-04-18T08:43:01.167Z,14.11
2018-04-18T08:44:01.055Z,14.13
2018-04-18T08:45:01.191Z,14.12
2018-04-18T08:46:01.352Z,14.11
2018-04-18T08:47:01.225Z,14.03
2018-04-18T08:48:01.100Z,14.12
2018-04-18T08:49:01.237Z,14.07
2018-04-18T08:50:01.252Z,14.00
2018-04-18T08:51:01.368Z,14.01
2018-04-18T08:52:01.149Z,13.98
2018-04-18T08:53:01.161Z,14.01
2018-04-18T08:54:01.184Z,14.00
2018-04-18T08:55:01.188Z,14.01
2018-04-18T08:56:01.428Z,13.98
2018-04-18T08:57:01.339Z,14.00
2018-04-18T08:58:01.351Z,13.98
2018-04-18T09:00:01.243Z,13.98
2018-04-18T09:01:01.488Z,13.91
2018-04-18T09:02:01.266Z,14.01
2018-04-18T09:03:01.278Z,14.03
2018-04-18T09:04:01.297Z,14.00
2018-04-18T09:05:01.322Z,13.97
2018-04-18T09:06:01.420Z,14.01
2018-04-18T09:07:01.448Z,14.00
2018-04-18T09:08:01.461Z,14.05
2018-04-18T09:09:01.475Z,14.15
2018-04-18T09:10:01.488Z,14.05
2018-04-18T09:11:01.479Z,14.15
2018-04-18T09:12:01.519Z,14.15
2018-04-18T09:13:01.523Z,14.20
2018-04-18T09:14:01.539Z,14.04
2018-04-18T09:15:01.430Z,14.15
2018-04-18T09:16:01.580Z,14.25
2018-04-18T09:17:01.574Z,14.20
2018-04-18T09:18:01.469Z,14.25
2018-04-18T09:19:01.486Z,14.07
2018-04-18T09:20:01.501Z,14.13
2018-04-18T09:21:01.768Z,14.08
2018-04-18T09:22:01.632Z,14.15
2018-04-18T09:23:01.560Z,14.16
2018-04-18T09:24:01.653Z,14.07
2018-04-18T09:25:01.543Z,14.16
2018-04-18T09:26:01.826Z,14.15
2018-04-18T09:27:01.688Z,14.07
2018-04-18T09:28:01.580Z,14.20
2018-04-18T09:29:01.715Z,14.23
2018-04-18T09:30:01.728Z,14.23
2018-04-18T09:31:01.756Z,14.28
2018-04-18T09:32:01.636Z,14.30
2018-04-18T09:33:01.760Z,14.23
2018-04-18T09:34:01.659Z,14.30
2018-04-18T09:35:01.783Z,14.30
2018-04-18T09:36:01.773Z,14.30
2018-04-18T09:37:01.809Z,14.37
2018-04-18T09:38:01.819Z,14.41
2018-04-18T09:39:01.830Z,14.49
2018-04-18T09:40:01.846Z,14.51
2018-04-18T09:41:01.836Z,14.53
2018-04-18T09:42:01.865Z,14.63
2018-04-18T09:43:01.878Z,14.77
2018-04-18T09:44:01.890Z,14.81
2018-04-18T09:45:01.775Z,15.02
2018-04-18T09:46:01.894Z,15.18
2018-04-18T09:47:01.928Z,15.19
2018-04-18T09:48:01.945Z,15.39
2018-04-18T09:49:01.835Z,15.44
2018-04-18T09:50:01.971Z,15.60
2018-04-18T09:51:01.953Z,15.76
2018-04-18T09:52:01.865Z,15.76
2018-04-18T09:53:02.004Z,15.85
2018-04-18T09:54:01.907Z,16.00
2018-04-18T09:55:02.032Z,16.06
2018-04-18T09:56:02.194Z,16.18
2018-04-18T09:57:01.936Z,16.29
2018-04-18T09:58:01.949Z,16.41
2018-04-18T09:59:02.084Z,16.55
2018-04-18T10:00:02.102Z,16.62
2018-04-18T10:01:02.212Z,16.76
2018-04-18T10:02:02.126Z,16.84
2018-04-18T10:03:02.143Z,16.99
2018-04-18T10:04:02.044Z,17.01
2018-04-18T10:05:02.057Z,17.10
2018-04-18T10:06:02.219Z,17.20
2018-04-18T10:07:02.207Z,17.30
2018-04-18T10:08:02.215Z,17.44
2018-04-18T10:09:02.100Z,17.60
2018-04-18T10:10:02.124Z,17.72
2018-04-18T10:11:02.247Z,17.84
2018-04-18T10:12:02.168Z,17.90
2018-04-18T10:13:02.171Z,18.06
2018-04-18T10:14:02.184Z,18.11
2018-04-18T10:15:02.329Z,18.30
2018-04-18T10:16:02.489Z,18.37
2018-04-18T10:17:02.352Z,18.49
2018-04-18T10:18:02.247Z,18.53
2018-04-18T10:19:02.271Z,18.66
2018-04-18T10:20:02.400Z,18.66
2018-04-18T10:21:02.565Z,18.76
2018-04-18T10:22:02.430Z,18.79
2018-04-18T10:23:02.375Z,18.97
2018-04-18T10:24:02.462Z,18.94
2018-04-18T10:25:02.479Z,19.09
2018-04-18T10:26:02.467Z,19.26
2018-04-18T10:27:02.392Z,19.17
2018-04-18T10:28:02.404Z,19.39
2018-04-18T10:29:02.423Z,19.49
2018-04-18T10:30:02.439Z,19.62
2018-04-18T10:31:02.738Z,19.67
2018-04-18T10:32:02.598Z,19.67
2018-04-18T10:33:02.614Z,19.75
2018-04-18T10:34:02.503Z,19.82
2018-04-18T10:35:02.522Z,19.82
2018-04-18T10:36:02.643Z,19.93
2018-04-18T10:37:02.683Z,20.03
2018-04-18T10:38:02.582Z,20.03
2018-04-18T10:39:02.609Z,20.21
2018-04-18T10:40:02.733Z,20.33
2018-04-18T10:41:02.726Z,20.44
2018-04-18T10:42:02.773Z,20.50
2018-04-18T10:43:02.786Z,20.59
2018-04-18T10:44:02.804Z,20.60
2018-04-18T10:45:02.821Z,20.66
2018-04-18T10:46:02.939Z,20.83
2018-04-18T10:47:02.859Z,20.93
2018-04-18T10:48:02.756Z,20.90
2018-04-18T10:49:02.898Z,20.90
2018-04-18T10:50:02.782Z,20.86
2018-04-18T10:51:02.901Z,20.96
2018-04-18T10:52:02.950Z,20.93
2018-04-18T10:53:02.841Z,20.96
2018-04-18T10:54:02.987Z,21.07
2018-04-18T10:55:03.004Z,21.15
2018-04-18T10:56:03.126Z,21.28
2018-04-18T10:57:03.051Z,21.44
2018-04-18T10:58:02.943Z,21.53
2018-04-18T10:59:03.079Z,21.66
2018-04-18T11:00:02.985Z,21.70
2018-04-18T11:01:03.217Z,21.72
2018-04-18T11:02:03.014Z,21.81
2018-04-18T11:03:03.158Z,22.01
2018-04-18T11:04:03.174Z,22.08
2018-04-18T11:05:03.064Z,22.16
2018-04-18T11:06:03.363Z,22.15
2018-04-18T11:07:03.111Z,22.21
2018-04-18T11:08:03.250Z,22.30
2018-04-18T11:09:03.153Z,22.47
2018-04-18T11:10:03.180Z,22.37
2018-04-18T11:11:03.286Z,22.46
2018-04-18T11:12:03.201Z,22.49
2018-04-18T11:13:03.349Z,22.53
2018-04-18T11:14:03.373Z,22.76
2018-04-18T11:15:03.255Z,22.76
2018-04-18T11:16:03.438Z,22.84
2018-04-18T11:17:03.445Z,22.78
2018-04-18T11:18:03.330Z,22.86
2018-04-18T11:19:03.342Z,23.08
2018-04-18T11:20:03.486Z,23.08
2018-04-18T11:21:03.536Z,23.14
2018-04-18T11:22:03.399Z,23.23
2018-04-18T11:23:03.420Z,23.32
2018-04-18T11:24:03.560Z,23.40
2018-04-18T11:25:03.579Z,23.63
2018-04-18T11:26:03.748Z,23.70
2018-04-18T11:27:03.495Z,23.89
2018-04-18T11:28:03.529Z,24.06
2018-04-18T11:29:03.529Z,24.29
2018-04-18T11:30:03.677Z,24.41
2018-04-18T11:31:03.770Z,24.46
2018-04-18T11:32:03.605Z,24.43
2018-04-18T11:33:03.612Z,24.43
2018-04-18T11:34:03.653Z,24.56
2018-04-18T11:35:03.669Z,24.53
2018-04-18T11:36:03.900Z,24.58
2018-04-18T11:37:03.711Z,24.44
2018-04-18T11:38:03.841Z,24.47
2018-04-18T11:39:03.864Z,24.56
2018-04-18T11:40:03.877Z,24.53
2018-04-18T11:41:04.001Z,24.56
2018-04-18T11:42:03.796Z,24.59
2018-04-18T11:43:03.937Z,24.58
2018-04-18T11:44:03.845Z,24.51
2018-04-18T11:45:03.870Z,24.50
2018-04-18T11:46:03.980Z,24.44
2018-04-18T11:47:04.016Z,24.50
2018-04-18T11:48:04.036Z,24.58
2018-04-18T11:49:04.054Z,24.50
2018-04-18T11:50:04.076Z,24.51
2018-04-18T11:51:04.231Z,24.48
2018-04-18T11:52:04.121Z,24.55
2018-04-18T11:53:04.133Z,24.61
2018-04-18T11:54:04.031Z,24.65
2018-04-18T11:55:04.061Z,24.69
2018-04-18T11:56:04.184Z,24.61
2018-04-18T11:57:04.083Z,24.65
2018-04-18T11:58:04.111Z,24.55
2018-04-18T11:59:04.132Z,24.50
2018-04-18T12:00:04.162Z,24.50
2018-04-18T12:01:04.393Z,24.44
2018-04-18T12:02:04.205Z,24.50
2018-04-18T12:03:04.331Z,24.41
2018-04-18T12:04:04.354Z,24.41
2018-04-18T12:05:04.252Z,24.29
2018-04-18T12:06:04.371Z,24.21
2018-04-18T12:07:04.410Z,24.21
2018-04-18T12:08:04.431Z,24.19
2018-04-18T12:09:04.454Z,24.13
2018-04-18T12:10:04.339Z,24.00
2018-04-18T12:11:04.519Z,23.82
2018-04-18T12:12:04.514Z,23.66
2018-04-18T12:13:04.532Z,23.67
2018-04-18T12:14:04.431Z,23.63
2018-04-18T12:15:04.448Z,23.66
2018-04-18T12:16:04.577Z,23.71
2018-04-18T12:17:04.490Z,23.59
2018-04-18T12:18:04.507Z,23.66
2018-04-18T12:19:04.516Z,23.59
2018-04-18T12:20:04.668Z,23.67
2018-04-18T12:21:04.663Z,23.66
2018-04-18T12:22:04.708Z,23.84
2018-04-18T12:23:04.630Z,23.91
2018-04-18T12:24:04.743Z,24.06
2018-04-18T12:25:04.641Z,24.18
2018-04-18T12:26:04.810Z,24.24
2018-04-18T12:27:04.684Z,24.24
2018-04-18T12:28:04.708Z,24.25
2018-04-18T12:29:04.723Z,24.03
2018-04-18T12:30:04.746Z,23.92
2018-04-18T12:31:04.977Z,23.91
2018-04-18T12:32:04.777Z,23.84
2018-04-18T12:33:04.796Z,23.82
2018-04-18T12:34:04.857Z,23.77
2018-04-18T12:35:04.844Z,23.67
2018-04-18T12:36:05.128Z,23.82
2018-04-18T12:37:04.873Z,24.04
2018-04-18T12:38:04.886Z,24.19
2018-04-18T12:39:04.911Z,24.32
2018-04-18T12:40:05.065Z,24.31
2018-04-18T12:41:05.113Z,24.32
2018-04-18T12:42:04.971Z,24.38
2018-04-18T12:43:05.113Z,24.29
2018-04-18T12:44:05.135Z,24.28
2018-04-18T12:45:05.040Z,24.25
2018-04-18T12:46:05.250Z,24.28
2018-04-18T12:47:05.066Z,24.19
2018-04-18T12:48:05.081Z,24.14
2018-04-18T12:49:05.225Z,24.13
2018-04-18T12:50:05.119Z,24.06
2018-04-18T12:51:05.342Z,24.03
2018-04-18T12:52:05.280Z,23.91
2018-04-18T12:53:05.299Z,23.84
2018-04-18T12:54:05.205Z,23.81
2018-04-18T12:55:05.227Z,23.76
2018-04-18T12:56:05.511Z,23.70